Terminal Aerodrome Forecast
Issued by NWS

Home | Current Version | Previous Version | Text Only | Print | Product List | Glossary On
Versions: 1 2 3 4 5 6 7 8 9 10 11 12 13 14 15 16 17 18 19 20 21 22 23 24 25
000
FTUS46 KEKA 192322
TAFUKI
TAF
KUKI 192322Z 2000/2024 15006KT P6SM SKC
     FM200600 15004KT P6SM SCT025 SCT050 OVC100
     FM201200 16005KT 6SM -RA BR SCT015 BKN025 OVC040
     FM201800 20009KT P6SM -SHRA BKN025=

USA.gov is the U.S. government's official web portal to all federal, state and local government web resources and services.